sensor_id;sensor_type;location;lat;lon;timestamp;P1;durP1;ratioP1;P2;durP2;ratioP2
75971;SDS011;64651;47.540;19.088;2023-02-19T00:00:13;5.78;;;1.50;;
75971;SDS011;64651;47.540;19.088;2023-02-19T00:05:16;5.65;;;1.15;;
75971;SDS011;64651;47.540;19.088;2023-02-19T00:10:18;5.43;;;1.30;;
75971;SDS011;64651;47.540;19.088;2023-02-19T00:15:20;5.30;;;1.33;;
75971;SDS011;64651;47.540;19.088;2023-02-19T00:20:22;4.78;;;1.40;;
75971;SDS011;64651;47.540;19.088;2023-02-19T00:25:25;4.62;;;1.20;;
75971;SDS011;64651;47.540;19.088;2023-02-19T00:30:27;5.30;;;1.20;;
75971;SDS011;64651;47.540;19.088;2023-02-19T00:35:32;4.13;;;1.13;;
75971;SDS011;64651;47.540;19.088;2023-02-19T00:40:34;4.07;;;1.00;;
75971;SDS011;64651;47.540;19.088;2023-02-19T00:45:37;5.00;;;1.10;;
75971;SDS011;64651;47.540;19.088;2023-02-19T00:50:39;5.20;;;1.23;;
75971;SDS011;64651;47.540;19.088;2023-02-19T00:55:41;4.50;;;1.00;;
75971;SDS011;64651;47.540;19.088;2023-02-19T01:00:43;4.37;;;1.10;;
75971;SDS011;64651;47.540;19.088;2023-02-19T01:05:46;4.43;;;0.90;;
75971;SDS011;64651;47.540;19.088;2023-02-19T01:10:48;4.82;;;0.95;;
75971;SDS011;64651;47.540;19.088;2023-02-19T01:15:50;3.67;;;1.10;;
75971;SDS011;64651;47.540;19.088;2023-02-19T01:20:53;4.03;;;0.98;;
75971;SDS011;64651;47.540;19.088;2023-02-19T01:25:55;3.67;;;0.87;;
75971;SDS011;64651;47.540;19.088;2023-02-19T01:31:01;4.57;;;0.90;;
75971;SDS011;64651;47.540;19.088;2023-02-19T01:36:05;4.50;;;1.12;;
75971;SDS011;64651;47.540;19.088;2023-02-19T01:41:08;3.65;;;0.90;;
75971;SDS011;64651;47.540;19.088;2023-02-19T01:46:13;5.07;;;1.10;;
75971;SDS011;64651;47.540;19.088;2023-02-19T01:51:16;3.77;;;1.07;;
75971;SDS011;64651;47.540;19.088;2023-02-19T01:56:20;5.05;;;1.30;;
75971;SDS011;64651;47.540;19.088;2023-02-19T02:01:24;4.05;;;1.02;;
75971;SDS011;64651;47.540;19.088;2023-02-19T02:06:30;3.87;;;0.77;;
75971;SDS011;64651;47.540;19.088;2023-02-19T02:11:37;3.78;;;1.00;;
75971;SDS011;64651;47.540;19.088;2023-02-19T02:22:20;3.65;;;0.90;;
75971;SDS011;64651;47.540;19.088;2023-02-19T02:38:13;4.37;;;0.90;;
75971;SDS011;64651;47.540;19.088;2023-02-19T02:43:18;3.27;;;0.87;;
75971;SDS011;64651;47.540;19.088;2023-02-19T02:58:54;2.90;;;0.60;;
75971;SDS011;64651;47.540;19.088;2023-02-19T03:04:00;4.18;;;0.90;;
75971;SDS011;64651;47.540;19.088;2023-02-19T03:09:17;3.10;;;0.70;;
75971;SDS011;64651;47.540;19.088;2023-02-19T03:14:38;3.47;;;0.80;;
75971;SDS011;64651;47.540;19.088;2023-02-19T03:20:04;3.15;;;0.88;;
75971;SDS011;64651;47.540;19.088;2023-02-19T03:25:12;3.45;;;0.85;;
75971;SDS011;64651;47.540;19.088;2023-02-19T03:30:39;3.83;;;1.05;;
75971;SDS011;64651;47.540;19.088;2023-02-19T03:35:51;3.30;;;0.80;;
75971;SDS011;64651;47.540;19.088;2023-02-19T03:41:03;3.80;;;1.10;;
75971;SDS011;64651;47.540;19.088;2023-02-19T03:46:13;3.75;;;0.90;;
75971;SDS011;64651;47.540;19.088;2023-02-19T03:51:31;3.22;;;0.82;;
75971;SDS011;64651;47.540;19.088;2023-02-19T03:56:50;2.92;;;0.70;;
75971;SDS011;64651;47.540;19.088;2023-02-19T04:02:00;3.67;;;0.97;;
75971;SDS011;64651;47.540;19.088;2023-02-19T04:07:09;3.55;;;0.90;;
75971;SDS011;64651;47.540;19.088;2023-02-19T04:12:11;4.22;;;1.02;;
75971;SDS011;64651;47.540;19.088;2023-02-19T04:17:20;5.05;;;0.88;;
75971;SDS011;64651;47.540;19.088;2023-02-19T04:22:28;3.62;;;0.70;;
75971;SDS011;64651;47.540;19.088;2023-02-19T04:27:31;3.37;;;0.90;;
75971;SDS011;64651;47.540;19.088;2023-02-19T04:32:33;2.67;;;0.70;;
75971;SDS011;64651;47.540;19.088;2023-02-19T04:37:35;3.90;;;0.82;;
75971;SDS011;64651;47.540;19.088;2023-02-19T04:42:37;3.92;;;1.00;;
75971;SDS011;64651;47.540;19.088;2023-02-19T04:47:40;3.75;;;0.98;;
75971;SDS011;64651;47.540;19.088;2023-02-19T04:52:42;4.00;;;1.00;;
75971;SDS011;64651;47.540;19.088;2023-02-19T04:57:44;3.33;;;0.80;;
75971;SDS011;64651;47.540;19.088;2023-02-19T05:02:46;3.37;;;0.88;;
75971;SDS011;64651;47.540;19.088;2023-02-19T05:07:48;4.72;;;1.00;;
75971;SDS011;64651;47.540;19.088;2023-02-19T05:12:50;2.40;;;0.60;;
75971;SDS011;64651;47.540;19.088;2023-02-19T05:17:53;3.30;;;0.80;;
75971;SDS011;64651;47.540;19.088;2023-02-19T05:22:55;3.72;;;0.80;;
75971;SDS011;64651;47.540;19.088;2023-02-19T05:27:57;4.03;;;0.82;;
75971;SDS011;64651;47.540;19.088;2023-02-19T05:33:18;3.35;;;0.70;;
75971;SDS011;64651;47.540;19.088;2023-02-19T05:38:21;3.25;;;0.82;;
75971;SDS011;64651;47.540;19.088;2023-02-19T05:43:24;2.17;;;0.63;;
75971;SDS011;64651;47.540;19.088;2023-02-19T05:48:26;2.78;;;0.70;;
75971;SDS011;64651;47.540;19.088;2023-02-19T05:53:29;3.95;;;0.82;;
75971;SDS011;64651;47.540;19.088;2023-02-19T05:58:31;4.62;;;1.10;;
75971;SDS011;64651;47.540;19.088;2023-02-19T06:03:33;5.43;;;1.50;;
75971;SDS011;64651;47.540;19.088;2023-02-19T06:08:35;5.17;;;1.30;;
75971;SDS011;64651;47.540;19.088;2023-02-19T06:13:39;6.72;;;1.70;;
75971;SDS011;64651;47.540;19.088;2023-02-19T06:18:41;5.18;;;1.50;;
75971;SDS011;64651;47.540;19.088;2023-02-19T06:23:44;6.15;;;1.77;;
75971;SDS011;64651;47.540;19.088;2023-02-19T06:28:47;6.18;;;2.10;;
75971;SDS011;64651;47.540;19.088;2023-02-19T06:33:50;6.87;;;2.10;;
75971;SDS011;64651;47.540;19.088;2023-02-19T06:38:53;6.70;;;2.03;;
75971;SDS011;64651;47.540;19.088;2023-02-19T06:43:57;5.93;;;1.75;;
75971;SDS011;64651;47.540;19.088;2023-02-19T06:49:00;7.80;;;2.22;;
75971;SDS011;64651;47.540;19.088;2023-02-19T06:54:04;7.53;;;2.42;;
75971;SDS011;64651;47.540;19.088;2023-02-19T06:59:07;5.67;;;1.70;;
75971;SDS011;64651;47.540;19.088;2023-02-19T07:04:12;6.80;;;2.20;;
75971;SDS011;64651;47.540;19.088;2023-02-19T07:09:14;7.18;;;1.80;;
75971;SDS011;64651;47.540;19.088;2023-02-19T07:14:16;5.82;;;1.70;;
75971;SDS011;64651;47.540;19.088;2023-02-19T07:19:19;6.15;;;1.60;;
75971;SDS011;64651;47.540;19.088;2023-02-19T07:24:21;6.57;;;1.47;;
75971;SDS011;64651;47.540;19.088;2023-02-19T07:29:23;5.05;;;1.23;;
75971;SDS011;64651;47.540;19.088;2023-02-19T07:34:25;4.60;;;1.40;;
75971;SDS011;64651;47.540;19.088;2023-02-19T07:39:28;4.65;;;1.20;;
75971;SDS011;64651;47.540;19.088;2023-02-19T07:44:30;11.38;;;4.95;;
75971;SDS011;64651;47.540;19.088;2023-02-19T07:49:32;13.33;;;5.70;;
75971;SDS011;64651;47.540;19.088;2023-02-19T07:54:34;13.75;;;6.20;;
75971;SDS011;64651;47.540;19.088;2023-02-19T07:59:36;13.10;;;5.68;;
75971;SDS011;64651;47.540;19.088;2023-02-19T08:04:39;15.88;;;7.10;;
75971;SDS011;64651;47.540;19.088;2023-02-19T08:09:41;15.68;;;6.53;;
75971;SDS011;64651;47.540;19.088;2023-02-19T08:14:44;9.57;;;4.23;;
75971;SDS011;64651;47.540;19.088;2023-02-19T08:19:46;13.23;;;5.05;;
75971;SDS011;64651;47.540;19.088;2023-02-19T08:24:49;8.55;;;2.70;;
75971;SDS011;64651;47.540;19.088;2023-02-19T08:29:51;7.00;;;1.87;;
75971;SDS011;64651;47.540;19.088;2023-02-19T08:34:53;5.30;;;0.90;;
75971;SDS011;64651;47.540;19.088;2023-02-19T08:39:55;5.33;;;1.07;;
75971;SDS011;64651;47.540;19.088;2023-02-19T08:44:57;4.50;;;1.50;;
75971;SDS011;64651;47.540;19.088;2023-02-19T08:49:59;6.80;;;1.55;;
75971;SDS011;64651;47.540;19.088;2023-02-19T08:55:02;5.18;;;1.30;;
75971;SDS011;64651;47.540;19.088;2023-02-19T09:00:06;6.60;;;1.92;;
75971;SDS011;64651;47.540;19.088;2023-02-19T09:05:10;8.37;;;2.87;;
75971;SDS011;64651;47.540;19.088;2023-02-19T09:10:13;10.95;;;3.33;;
75971;SDS011;64651;47.540;19.088;2023-02-19T09:15:15;10.18;;;3.97;;
75971;SDS011;64651;47.540;19.088;2023-02-19T09:20:17;10.13;;;3.80;;
75971;SDS011;64651;47.540;19.088;2023-02-19T09:25:19;10.32;;;4.45;;
75971;SDS011;64651;47.540;19.088;2023-02-19T09:30:22;11.13;;;4.60;;
75971;SDS011;64651;47.540;19.088;2023-02-19T09:35:25;9.88;;;3.67;;
75971;SDS011;64651;47.540;19.088;2023-02-19T09:40:28;9.73;;;4.10;;
75971;SDS011;64651;47.540;19.088;2023-02-19T09:45:31;9.43;;;3.80;;
75971;SDS011;64651;47.540;19.088;2023-02-19T09:50:43;9.23;;;3.40;;
75971;SDS011;64651;47.540;19.088;2023-02-19T09:55:49;10.30;;;3.50;;
75971;SDS011;64651;47.540;19.088;2023-02-19T10:00:53;8.68;;;3.33;;
75971;SDS011;64651;47.540;19.088;2023-02-19T10:05:58;10.77;;;3.90;;
75971;SDS011;64651;47.540;19.088;2023-02-19T10:11:27;9.40;;;3.70;;
75971;SDS011;64651;47.540;19.088;2023-02-19T10:16:29;10.50;;;3.92;;
75971;SDS011;64651;47.540;19.088;2023-02-19T10:21:32;9.23;;;3.47;;
75971;SDS011;64651;47.540;19.088;2023-02-19T10:26:34;8.95;;;4.25;;
75971;SDS011;64651;47.540;19.088;2023-02-19T10:31:37;9.88;;;4.45;;
75971;SDS011;64651;47.540;19.088;2023-02-19T10:36:40;11.02;;;3.75;;
75971;SDS011;64651;47.540;19.088;2023-02-19T10:41:45;7.70;;;2.83;;
75971;SDS011;64651;47.540;19.088;2023-02-19T10:46:50;8.40;;;3.40;;
75971;SDS011;64651;47.540;19.088;2023-02-19T10:51:56;7.93;;;3.33;;
75971;SDS011;64651;47.540;19.088;2023-02-19T11:02:20;9.67;;;3.67;;
75971;SDS011;64651;47.540;19.088;2023-02-19T11:07:23;8.35;;;3.58;;
75971;SDS011;64651;47.540;19.088;2023-02-19T11:12:28;6.23;;;2.13;;
75971;SDS011;64651;47.540;19.088;2023-02-19T11:17:34;6.20;;;2.55;;
75971;SDS011;64651;47.540;19.088;2023-02-19T11:22:37;6.03;;;2.35;;
75971;SDS011;64651;47.540;19.088;2023-02-19T11:33:29;8.48;;;2.78;;
75971;SDS011;64651;47.540;19.088;2023-02-19T11:38:31;7.70;;;2.97;;
75971;SDS011;64651;47.540;19.088;2023-02-19T11:49:00;7.30;;;3.20;;
75971;SDS011;64651;47.540;19.088;2023-02-19T11:59:44;6.37;;;2.70;;
75971;SDS011;64651;47.540;19.088;2023-02-19T12:26:23;7.30;;;3.08;;
75971;SDS011;64651;47.540;19.088;2023-02-19T12:58:48;6.17;;;2.57;;
75971;SDS011;64651;47.540;19.088;2023-02-19T13:14:41;3.58;;;0.90;;
75971;SDS011;64651;47.540;19.088;2023-02-19T13:19:47;4.60;;;1.35;;
75971;SDS011;64651;47.540;19.088;2023-02-19T13:24:52;5.10;;;1.30;;
75971;SDS011;64651;47.540;19.088;2023-02-19T13:40:35;5.17;;;1.43;;
75971;SDS011;64651;47.540;19.088;2023-02-19T13:45:40;4.85;;;1.42;;
75971;SDS011;64651;47.540;19.088;2023-02-19T13:50:46;3.93;;;1.20;;
75971;SDS011;64651;47.540;19.088;2023-02-19T13:55:49;4.45;;;0.90;;
75971;SDS011;64651;47.540;19.088;2023-02-19T14:00:53;4.10;;;1.10;;
75971;SDS011;64651;47.540;19.088;2023-02-19T14:05:59;4.12;;;1.12;;
75971;SDS011;64651;47.540;19.088;2023-02-19T14:11:08;4.55;;;0.80;;
75971;SDS011;64651;47.540;19.088;2023-02-19T14:16:47;3.67;;;0.80;;
75971;SDS011;64651;47.540;19.088;2023-02-19T14:21:52;3.95;;;1.00;;
75971;SDS011;64651;47.540;19.088;2023-02-19T14:26:55;2.78;;;0.50;;
75971;SDS011;64651;47.540;19.088;2023-02-19T14:31:58;1.92;;;0.47;;
75971;SDS011;64651;47.540;19.088;2023-02-19T14:37:01;2.03;;;0.50;;
75971;SDS011;64651;47.540;19.088;2023-02-19T14:42:11;1.93;;;0.50;;
75971;SDS011;64651;47.540;19.088;2023-02-19T14:47:23;2.55;;;0.68;;
75971;SDS011;64651;47.540;19.088;2023-02-19T14:52:38;2.70;;;0.70;;
75971;SDS011;64651;47.540;19.088;2023-02-19T14:57:46;2.92;;;0.70;;
75971;SDS011;64651;47.540;19.088;2023-02-19T15:02:50;2.10;;;0.60;;
75971;SDS011;64651;47.540;19.088;2023-02-19T15:08:11;3.80;;;0.83;;
75971;SDS011;64651;47.540;19.088;2023-02-19T15:13:20;4.68;;;0.75;;
75971;SDS011;64651;47.540;19.088;2023-02-19T15:18:29;3.25;;;0.70;;
75971;SDS011;64651;47.540;19.088;2023-02-19T15:23:36;2.17;;;0.55;;
75971;SDS011;64651;47.540;19.088;2023-02-19T15:28:39;3.40;;;0.80;;
75971;SDS011;64651;47.540;19.088;2023-02-19T15:33:48;5.67;;;0.80;;
75971;SDS011;64651;47.540;19.088;2023-02-19T15:38:55;2.87;;;0.62;;
75971;SDS011;64651;47.540;19.088;2023-02-19T15:49:20;2.78;;;0.55;;
75971;SDS011;64651;47.540;19.088;2023-02-19T15:55:21;2.22;;;0.50;;
75971;SDS011;64651;47.540;19.088;2023-02-19T16:00:08;3.03;;;0.70;;
75971;SDS011;64651;47.540;19.088;2023-02-19T16:05:13;2.15;;;0.60;;
75971;SDS011;64651;47.540;19.088;2023-02-19T16:10:23;3.65;;;0.80;;
75971;SDS011;64651;47.540;19.088;2023-02-19T16:15:26;4.35;;;0.85;;
75971;SDS011;64651;47.540;19.088;2023-02-19T16:20:31;3.83;;;0.80;;
75971;SDS011;64651;47.540;19.088;2023-02-19T16:25:39;2.40;;;0.50;;
75971;SDS011;64651;47.540;19.088;2023-02-19T16:30:44;3.97;;;0.70;;
75971;SDS011;64651;47.540;19.088;2023-02-19T16:35:47;4.30;;;0.77;;
75971;SDS011;64651;47.540;19.088;2023-02-19T16:45:53;3.85;;;0.50;;
75971;SDS011;64651;47.540;19.088;2023-02-19T16:50:55;3.57;;;0.47;;
75971;SDS011;64651;47.540;19.088;2023-02-19T16:55:57;3.37;;;0.60;;
75971;SDS011;64651;47.540;19.088;2023-02-19T17:01:00;2.17;;;0.40;;
75971;SDS011;64651;47.540;19.088;2023-02-19T17:06:03;2.40;;;0.50;;
75971;SDS011;64651;47.540;19.088;2023-02-19T17:11:08;3.62;;;0.65;;
75971;SDS011;64651;47.540;19.088;2023-02-19T17:16:17;2.30;;;0.47;;
75971;SDS011;64651;47.540;19.088;2023-02-19T17:21:23;2.92;;;0.52;;
75971;SDS011;64651;47.540;19.088;2023-02-19T17:26:28;2.37;;;0.50;;
75971;SDS011;64651;47.540;19.088;2023-02-19T17:31:31;2.45;;;0.50;;
75971;SDS011;64651;47.540;19.088;2023-02-19T17:36:34;4.25;;;0.68;;
75971;SDS011;64651;47.540;19.088;2023-02-19T17:41:38;4.57;;;0.87;;
75971;SDS011;64651;47.540;19.088;2023-02-19T17:46:40;4.35;;;0.90;;
75971;SDS011;64651;47.540;19.088;2023-02-19T17:51:44;6.25;;;0.90;;
75971;SDS011;64651;47.540;19.088;2023-02-19T17:56:47;5.62;;;0.90;;
75971;SDS011;64651;47.540;19.088;2023-02-19T18:01:49;4.47;;;0.77;;
75971;SDS011;64651;47.540;19.088;2023-02-19T18:06:51;4.63;;;0.90;;
75971;SDS011;64651;47.540;19.088;2023-02-19T18:11:54;4.00;;;0.85;;
75971;SDS011;64651;47.540;19.088;2023-02-19T18:16:57;3.33;;;0.60;;
75971;SDS011;64651;47.540;19.088;2023-02-19T18:21:59;4.28;;;0.68;;
75971;SDS011;64651;47.540;19.088;2023-02-19T18:27:01;3.95;;;0.90;;
75971;SDS011;64651;47.540;19.088;2023-02-19T18:32:03;4.90;;;0.90;;
75971;SDS011;64651;47.540;19.088;2023-02-19T18:37:06;5.05;;;0.85;;
75971;SDS011;64651;47.540;19.088;2023-02-19T18:42:08;3.85;;;0.85;;
75971;SDS011;64651;47.540;19.088;2023-02-19T18:47:10;3.67;;;0.80;;
75971;SDS011;64651;47.540;19.088;2023-02-19T18:52:13;3.62;;;0.90;;
75971;SDS011;64651;47.540;19.088;2023-02-19T18:57:16;3.83;;;0.83;;
75971;SDS011;64651;47.540;19.088;2023-02-19T19:02:20;6.00;;;1.65;;
75971;SDS011;64651;47.540;19.088;2023-02-19T19:07:23;4.22;;;1.00;;
75971;SDS011;64651;47.540;19.088;2023-02-19T19:12:25;4.68;;;1.10;;
75971;SDS011;64651;47.540;19.088;2023-02-19T19:17:27;5.03;;;1.40;;
75971;SDS011;64651;47.540;19.088;2023-02-19T19:22:29;5.40;;;0.90;;
75971;SDS011;64651;47.540;19.088;2023-02-19T19:27:32;5.05;;;1.40;;
75971;SDS011;64651;47.540;19.088;2023-02-19T19:32:34;4.72;;;1.17;;
75971;SDS011;64651;47.540;19.088;2023-02-19T19:37:36;7.00;;;1.52;;
75971;SDS011;64651;47.540;19.088;2023-02-19T19:42:38;5.30;;;1.27;;
75971;SDS011;64651;47.540;19.088;2023-02-19T19:47:45;5.80;;;1.40;;
75971;SDS011;64651;47.540;19.088;2023-02-19T19:52:49;4.97;;;1.30;;
75971;SDS011;64651;47.540;19.088;2023-02-19T19:57:51;6.62;;;1.70;;
75971;SDS011;64651;47.540;19.088;2023-02-19T20:02:55;6.50;;;1.90;;
75971;SDS011;64651;47.540;19.088;2023-02-19T20:07:57;6.03;;;1.90;;
75971;SDS011;64651;47.540;19.088;2023-02-19T20:12:59;6.00;;;1.73;;
75971;SDS011;64651;47.540;19.088;2023-02-19T20:18:02;6.85;;;1.80;;
75971;SDS011;64651;47.540;19.088;2023-02-19T20:23:04;8.43;;;2.17;;
75971;SDS011;64651;47.540;19.088;2023-02-19T20:28:06;5.75;;;1.60;;
75971;SDS011;64651;47.540;19.088;2023-02-19T20:33:09;5.43;;;1.50;;
75971;SDS011;64651;47.540;19.088;2023-02-19T20:38:13;4.77;;;1.30;;
75971;SDS011;64651;47.540;19.088;2023-02-19T20:43:16;5.18;;;1.40;;
75971;SDS011;64651;47.540;19.088;2023-02-19T20:48:18;8.38;;;1.83;;
75971;SDS011;64651;47.540;19.088;2023-02-19T20:53:20;5.45;;;1.27;;
75971;SDS011;64651;47.540;19.088;2023-02-19T20:58:23;4.60;;;1.25;;
75971;SDS011;64651;47.540;19.088;2023-02-19T21:03:26;4.60;;;1.00;;
75971;SDS011;64651;47.540;19.088;2023-02-19T21:08:28;6.32;;;1.55;;
75971;SDS011;64651;47.540;19.088;2023-02-19T21:13:30;4.03;;;0.90;;
75971;SDS011;64651;47.540;19.088;2023-02-19T21:18:32;4.18;;;1.30;;
75971;SDS011;64651;47.540;19.088;2023-02-19T21:23:35;4.50;;;1.00;;
75971;SDS011;64651;47.540;19.088;2023-02-19T21:28:38;7.70;;;1.73;;
75971;SDS011;64651;47.540;19.088;2023-02-19T21:33:41;4.65;;;1.10;;
75971;SDS011;64651;47.540;19.088;2023-02-19T21:38:43;4.53;;;1.10;;
75971;SDS011;64651;47.540;19.088;2023-02-19T21:43:45;5.90;;;1.20;;
75971;SDS011;64651;47.540;19.088;2023-02-19T21:48:52;5.70;;;1.10;;
75971;SDS011;64651;47.540;19.088;2023-02-19T21:53:55;4.63;;;1.07;;
75971;SDS011;64651;47.540;19.088;2023-02-19T21:58:58;4.53;;;0.90;;
75971;SDS011;64651;47.540;19.088;2023-02-19T22:04:00;5.35;;;1.00;;
75971;SDS011;64651;47.540;19.088;2023-02-19T22:09:02;4.12;;;1.00;;
75971;SDS011;64651;47.540;19.088;2023-02-19T22:14:05;4.78;;;1.00;;
75971;SDS011;64651;47.540;19.088;2023-02-19T22:19:08;5.67;;;1.27;;
75971;SDS011;64651;47.540;19.088;2023-02-19T22:24:16;4.40;;;0.77;;
75971;SDS011;64651;47.540;19.088;2023-02-19T22:29:20;3.35;;;0.90;;
75971;SDS011;64651;47.540;19.088;2023-02-19T22:34:24;5.00;;;0.95;;
75971;SDS011;64651;47.540;19.088;2023-02-19T22:39:27;5.90;;;1.10;;
75971;SDS011;64651;47.540;19.088;2023-02-19T22:44:29;4.33;;;1.03;;
75971;SDS011;64651;47.540;19.088;2023-02-19T22:49:31;5.07;;;1.15;;
75971;SDS011;64651;47.540;19.088;2023-02-19T22:54:34;4.93;;;1.00;;
75971;SDS011;64651;47.540;19.088;2023-02-19T22:59:36;5.40;;;1.12;;
75971;SDS011;64651;47.540;19.088;2023-02-19T23:04:39;5.03;;;1.10;;
75971;SDS011;64651;47.540;19.088;2023-02-19T23:09:41;5.07;;;1.10;;
75971;SDS011;64651;47.540;19.088;2023-02-19T23:14:44;5.10;;;1.15;;
75971;SDS011;64651;47.540;19.088;2023-02-19T23:19:47;3.78;;;0.68;;
75971;SDS011;64651;47.540;19.088;2023-02-19T23:24:52;5.12;;;1.10;;
75971;SDS011;64651;47.540;19.088;2023-02-19T23:29:54;4.93;;;1.15;;
75971;SDS011;64651;47.540;19.088;2023-02-19T23:34:58;7.07;;;1.20;;
75971;SDS011;64651;47.540;19.088;2023-02-19T23:40:00;5.53;;;1.00;;
75971;SDS011;64651;47.540;19.088;2023-02-19T23:45:02;4.95;;;1.10;;
75971;SDS011;64651;47.540;19.088;2023-02-19T23:50:05;4.03;;;0.90;;
75971;SDS011;64651;47.540;19.088;2023-02-19T23:55:07;5.18;;;1.12;;
